sensor_id;sensor_type;location;lat;lon;timestamp;temperature;humidity
61201;DHT22;47065;52.898;6.992;2023-01-08T00:08:23;10.00;99.90
61201;DHT22;47065;52.898;6.992;2023-01-08T00:20:05;10.10;99.90
61201;DHT22;47065;52.898;6.992;2023-01-08T00:29:26;10.10;99.90
61201;DHT22;47065;52.898;6.992;2023-01-08T00:32:14;10.10;99.90
61201;DHT22;47065;52.898;6.992;2023-01-08T00:34:48;10.10;99.90
61201;DHT22;47065;52.898;6.992;2023-01-08T00:37:57;10.10;99.90
61201;DHT22;47065;52.898;6.992;2023-01-08T00:44:22;10.10;99.90
61201;DHT22;47065;52.898;6.992;2023-01-08T00:47:05;10.10;99.90
61201;DHT22;47065;52.898;6.992;2023-01-08T00:50:06;10.10;99.90
61201;DHT22;47065;52.898;6.992;2023-01-08T00:52:34;10.10;99.90
61201;DHT22;47065;52.898;6.992;2023-01-08T01:01:40;10.20;99.90
61201;DHT22;47065;52.898;6.992;2023-01-08T01:04:43;10.10;99.90
61201;DHT22;47065;52.898;6.992;2023-01-08T01:07:40;10.10;99.90
61201;DHT22;47065;52.898;6.992;2023-01-08T01:10:32;10.10;99.90
61201;DHT22;47065;52.898;6.992;2023-01-08T01:16:38;10.10;99.90
61201;DHT22;47065;52.898;6.992;2023-01-08T01:19:49;10.00;99.90
61201;DHT22;47065;52.898;6.992;2023-01-08T01:22:40;10.00;99.90
61201;DHT22;47065;52.898;6.992;2023-01-08T01:25:29;10.00;99.90
61201;DHT22;47065;52.898;6.992;2023-01-08T01:27:57;10.00;99.90
61201;DHT22;47065;52.898;6.992;2023-01-08T01:30:52;10.00;99.90
61201;DHT22;47065;52.898;6.992;2023-01-08T01:33:26;10.00;99.90
61201;DHT22;47065;52.898;6.992;2023-01-08T01:36:35;10.00;99.90
61201;DHT22;47065;52.898;6.992;2023-01-08T01:39:26;9.90;99.90
61201;DHT22;47065;52.898;6.992;2023-01-08T01:42:03;9.80;99.90
61201;DHT22;47065;52.898;6.992;2023-01-08T01:44:56;9.80;99.90
61201;DHT22;47065;52.898;6.992;2023-01-08T01:47:44;9.70;99.90
61201;DHT22;47065;52.898;6.992;2023-01-08T01:53:44;9.50;99.90
61201;DHT22;47065;52.898;6.992;2023-01-08T02:03:08;9.10;99.90
61201;DHT22;47065;52.898;6.992;2023-01-08T02:22:09;8.60;99.90
61201;DHT22;47065;52.898;6.992;2023-01-08T02:28:43;8.60;99.90
61201;DHT22;47065;52.898;6.992;2023-01-08T02:31:34;8.50;99.90
61201;DHT22;47065;52.898;6.992;2023-01-08T02:34:20;8.50;99.90
61201;DHT22;47065;52.898;6.992;2023-01-08T02:37:26;8.50;99.90
61201;DHT22;47065;52.898;6.992;2023-01-08T02:44:21;8.50;99.90
61201;DHT22;47065;52.898;6.992;2023-01-08T02:51:24;8.40;99.90
61201;DHT22;47065;52.898;6.992;2023-01-08T02:54:17;8.40;99.90
61201;DHT22;47065;52.898;6.992;2023-01-08T02:56:49;8.40;99.90
61201;DHT22;47065;52.898;6.992;2023-01-08T02:59:29;8.40;99.90
61201;DHT22;47065;52.898;6.992;2023-01-08T03:02:53;8.40;99.90
61201;DHT22;47065;52.898;6.992;2023-01-08T03:12:50;8.40;99.90
61201;DHT22;47065;52.898;6.992;2023-01-08T03:16:07;8.40;99.90
61201;DHT22;47065;52.898;6.992;2023-01-08T03:29:25;8.30;99.90
61201;DHT22;47065;52.898;6.992;2023-01-08T03:32:09;8.30;99.90
61201;DHT22;47065;52.898;6.992;2023-01-08T03:34:43;8.40;99.90
61201;DHT22;47065;52.898;6.992;2023-01-08T03:37:41;8.30;99.90
61201;DHT22;47065;52.898;6.992;2023-01-08T03:40:47;8.40;99.90
61201;DHT22;47065;52.898;6.992;2023-01-08T03:49:41;8.50;99.90
61201;DHT22;47065;52.898;6.992;2023-01-08T03:52:54;8.60;99.90
61201;DHT22;47065;52.898;6.992;2023-01-08T04:01:20;8.80;99.90
61201;DHT22;47065;52.898;6.992;2023-01-08T04:04:15;8.90;99.90
61201;DHT22;47065;52.898;6.992;2023-01-08T04:13:40;9.00;99.90
61201;DHT22;47065;52.898;6.992;2023-01-08T04:17:08;9.10;99.90
61201;DHT22;47065;52.898;6.992;2023-01-08T04:19:38;9.00;99.90
61201;DHT22;47065;52.898;6.992;2023-01-08T04:22:30;9.00;99.90
61201;DHT22;47065;52.898;6.992;2023-01-08T04:28:17;9.00;99.90
61201;DHT22;47065;52.898;6.992;2023-01-08T04:34:00;9.00;99.90
61201;DHT22;47065;52.898;6.992;2023-01-08T04:39:32;9.00;99.90
61201;DHT22;47065;52.898;6.992;2023-01-08T04:49:22;9.00;99.90
61201;DHT22;47065;52.898;6.992;2023-01-08T04:52:01;8.90;99.90
61201;DHT22;47065;52.898;6.992;2023-01-08T04:54:57;8.90;99.90
61201;DHT22;47065;52.898;6.992;2023-01-08T04:58:10;8.90;99.90
61201;DHT22;47065;52.898;6.992;2023-01-08T05:05:01;8.80;99.90
61201;DHT22;47065;52.898;6.992;2023-01-08T05:07:57;8.70;99.90
61201;DHT22;47065;52.898;6.992;2023-01-08T05:14:21;8.60;99.90
61201;DHT22;47065;52.898;6.992;2023-01-08T05:17:04;8.60;99.90
61201;DHT22;47065;52.898;6.992;2023-01-08T05:19:39;8.60;99.90
61201;DHT22;47065;52.898;6.992;2023-01-08T05:22:04;8.60;99.90
61201;DHT22;47065;52.898;6.992;2023-01-08T05:24:30;8.50;99.90
61201;DHT22;47065;52.898;6.992;2023-01-08T05:26:55;8.60;99.90
61201;DHT22;47065;52.898;6.992;2023-01-08T05:29:21;8.50;99.90
61201;DHT22;47065;52.898;6.992;2023-01-08T05:31:47;8.50;99.90
61201;DHT22;47065;52.898;6.992;2023-01-08T05:34:12;8.50;99.90
61201;DHT22;47065;52.898;6.992;2023-01-08T05:36:38;8.50;99.90
61201;DHT22;47065;52.898;6.992;2023-01-08T05:39:04;8.50;99.90
61201;DHT22;47065;52.898;6.992;2023-01-08T05:41:29;8.60;99.90
61201;DHT22;47065;52.898;6.992;2023-01-08T05:43:55;8.50;99.90
61201;DHT22;47065;52.898;6.992;2023-01-08T05:46:21;8.60;99.90
61201;DHT22;47065;52.898;6.992;2023-01-08T05:48:46;8.60;99.90
61201;DHT22;47065;52.898;6.992;2023-01-08T05:51:12;8.50;99.90
61201;DHT22;47065;52.898;6.992;2023-01-08T05:53:38;8.50;99.90
61201;DHT22;47065;52.898;6.992;2023-01-08T05:56:08;8.50;99.90
61201;DHT22;47065;52.898;6.992;2023-01-08T05:58:35;8.50;99.90
61201;DHT22;47065;52.898;6.992;2023-01-08T06:01:12;8.50;99.90
61201;DHT22;47065;52.898;6.992;2023-01-08T06:03:38;8.50;99.90
61201;DHT22;47065;52.898;6.992;2023-01-08T06:06:05;8.40;99.90
61201;DHT22;47065;52.898;6.992;2023-01-08T06:08:33;8.40;99.90
61201;DHT22;47065;52.898;6.992;2023-01-08T06:11:05;8.40;99.90
61201;DHT22;47065;52.898;6.992;2023-01-08T06:13:32;8.30;99.90
61201;DHT22;47065;52.898;6.992;2023-01-08T06:15:59;8.30;99.90
61201;DHT22;47065;52.898;6.992;2023-01-08T06:18:26;8.30;99.90
61201;DHT22;47065;52.898;6.992;2023-01-08T06:20:52;8.30;99.90
61201;DHT22;47065;52.898;6.992;2023-01-08T06:23:18;8.20;99.90
61201;DHT22;47065;52.898;6.992;2023-01-08T06:25:43;8.20;99.90
61201;DHT22;47065;52.898;6.992;2023-01-08T06:28:09;8.20;99.90
61201;DHT22;47065;52.898;6.992;2023-01-08T06:30:34;8.20;99.90
61201;DHT22;47065;52.898;6.992;2023-01-08T06:33:00;8.20;99.90
61201;DHT22;47065;52.898;6.992;2023-01-08T06:35:26;8.20;99.90
61201;DHT22;47065;52.898;6.992;2023-01-08T06:37:55;8.10;99.90
61201;DHT22;47065;52.898;6.992;2023-01-08T06:40:21;8.10;99.90
61201;DHT22;47065;52.898;6.992;2023-01-08T06:42:47;8.10;99.90
61201;DHT22;47065;52.898;6.992;2023-01-08T06:45:13;8.10;99.90
61201;DHT22;47065;52.898;6.992;2023-01-08T06:47:38;8.10;99.90
61201;DHT22;47065;52.898;6.992;2023-01-08T06:50:04;8.10;99.90
61201;DHT22;47065;52.898;6.992;2023-01-08T06:52:33;8.00;99.90
61201;DHT22;47065;52.898;6.992;2023-01-08T06:54:58;8.00;99.90
61201;DHT22;47065;52.898;6.992;2023-01-08T06:57:24;8.00;99.90
61201;DHT22;47065;52.898;6.992;2023-01-08T06:59:50;8.10;99.90
61201;DHT22;47065;52.898;6.992;2023-01-08T07:02:18;8.10;99.90
61201;DHT22;47065;52.898;6.992;2023-01-08T07:04:44;8.10;99.90
61201;DHT22;47065;52.898;6.992;2023-01-08T07:07:13;8.10;99.90
61201;DHT22;47065;52.898;6.992;2023-01-08T07:09:40;8.10;99.90
61201;DHT22;47065;52.898;6.992;2023-01-08T07:12:10;8.00;99.90
61201;DHT22;47065;52.898;6.992;2023-01-08T07:14:35;8.00;99.90
61201;DHT22;47065;52.898;6.992;2023-01-08T07:17:01;8.00;99.90
61201;DHT22;47065;52.898;6.992;2023-01-08T07:19:27;8.00;99.90
61201;DHT22;47065;52.898;6.992;2023-01-08T07:21:52;8.00;99.90
61201;DHT22;47065;52.898;6.992;2023-01-08T07:24:18;8.00;99.90
61201;DHT22;47065;52.898;6.992;2023-01-08T07:26:44;8.10;99.90
61201;DHT22;47065;52.898;6.992;2023-01-08T07:29:09;8.10;99.90
61201;DHT22;47065;52.898;6.992;2023-01-08T07:31:35;8.10;99.90
61201;DHT22;47065;52.898;6.992;2023-01-08T07:34:00;8.10;99.90
61201;DHT22;47065;52.898;6.992;2023-01-08T07:36:26;8.20;99.90
61201;DHT22;47065;52.898;6.992;2023-01-08T07:38:52;8.10;99.90
61201;DHT22;47065;52.898;6.992;2023-01-08T07:41:17;8.10;99.90
61201;DHT22;47065;52.898;6.992;2023-01-08T07:43:45;8.20;99.90
61201;DHT22;47065;52.898;6.992;2023-01-08T07:46:11;8.20;99.90
61201;DHT22;47065;52.898;6.992;2023-01-08T07:48:36;8.10;99.90
61201;DHT22;47065;52.898;6.992;2023-01-08T07:51:03;8.10;99.90
61201;DHT22;47065;52.898;6.992;2023-01-08T07:53:30;8.10;99.90
61201;DHT22;47065;52.898;6.992;2023-01-08T07:56:03;8.10;99.90
61201;DHT22;47065;52.898;6.992;2023-01-08T07:58:30;8.10;99.90
61201;DHT22;47065;52.898;6.992;2023-01-08T08:00:56;8.10;99.90
61201;DHT22;47065;52.898;6.992;2023-01-08T08:03:22;8.10;99.90
61201;DHT22;47065;52.898;6.992;2023-01-08T08:05:49;8.10;99.90
61201;DHT22;47065;52.898;6.992;2023-01-08T08:08:14;8.10;99.90
61201;DHT22;47065;52.898;6.992;2023-01-08T08:10:41;8.10;99.90
61201;DHT22;47065;52.898;6.992;2023-01-08T08:13:07;8.10;99.90
61201;DHT22;47065;52.898;6.992;2023-01-08T08:15:33;8.20;99.90
61201;DHT22;47065;52.898;6.992;2023-01-08T08:17:59;8.10;99.90
61201;DHT22;47065;52.898;6.992;2023-01-08T08:20:25;8.10;99.90
61201;DHT22;47065;52.898;6.992;2023-01-08T08:22:51;8.10;99.90
61201;DHT22;47065;52.898;6.992;2023-01-08T08:25:17;8.10;99.90
61201;DHT22;47065;52.898;6.992;2023-01-08T08:27:43;8.10;99.90
61201;DHT22;47065;52.898;6.992;2023-01-08T08:30:10;8.10;99.90
61201;DHT22;47065;52.898;6.992;2023-01-08T08:32:36;8.00;99.90
61201;DHT22;47065;52.898;6.992;2023-01-08T08:35:03;8.00;99.90
61201;DHT22;47065;52.898;6.992;2023-01-08T08:37:29;8.00;99.90
61201;DHT22;47065;52.898;6.992;2023-01-08T08:39:55;7.90;99.90
61201;DHT22;47065;52.898;6.992;2023-01-08T08:42:20;7.90;99.90
61201;DHT22;47065;52.898;6.992;2023-01-08T08:44:46;7.90;99.90
61201;DHT22;47065;52.898;6.992;2023-01-08T08:47:12;7.90;99.90
61201;DHT22;47065;52.898;6.992;2023-01-08T08:49:38;7.90;99.90
61201;DHT22;47065;52.898;6.992;2023-01-08T08:52:04;7.90;99.90
61201;DHT22;47065;52.898;6.992;2023-01-08T08:54:30;7.90;99.90
61201;DHT22;47065;52.898;6.992;2023-01-08T08:56:56;8.00;99.90
61201;DHT22;47065;52.898;6.992;2023-01-08T08:59:21;8.00;99.90
61201;DHT22;47065;52.898;6.992;2023-01-08T09:01:47;8.00;99.90
61201;DHT22;47065;52.898;6.992;2023-01-08T09:04:13;8.00;99.90
61201;DHT22;47065;52.898;6.992;2023-01-08T09:06:38;8.00;99.90
61201;DHT22;47065;52.898;6.992;2023-01-08T09:09:04;8.00;99.90
61201;DHT22;47065;52.898;6.992;2023-01-08T09:11:30;8.00;99.90
61201;DHT22;47065;52.898;6.992;2023-01-08T09:13:56;8.00;99.90
61201;DHT22;47065;52.898;6.992;2023-01-08T09:16:22;8.10;99.90
61201;DHT22;47065;52.898;6.992;2023-01-08T09:18:47;8.10;99.90
61201;DHT22;47065;52.898;6.992;2023-01-08T09:21:14;8.10;99.90
61201;DHT22;47065;52.898;6.992;2023-01-08T09:23:42;8.10;99.90
61201;DHT22;47065;52.898;6.992;2023-01-08T09:26:08;8.10;99.90
61201;DHT22;47065;52.898;6.992;2023-01-08T09:28:34;8.10;99.90
61201;DHT22;47065;52.898;6.992;2023-01-08T09:31:01;8.10;99.90
61201;DHT22;47065;52.898;6.992;2023-01-08T09:33:28;8.20;99.90
61201;DHT22;47065;52.898;6.992;2023-01-08T09:35:54;8.20;99.90
61201;DHT22;47065;52.898;6.992;2023-01-08T09:38:19;8.30;99.90
61201;DHT22;47065;52.898;6.992;2023-01-08T09:40:56;8.30;99.90
61201;DHT22;47065;52.898;6.992;2023-01-08T09:43:24;8.40;99.90
61201;DHT22;47065;52.898;6.992;2023-01-08T09:45:59;8.50;99.90
61201;DHT22;47065;52.898;6.992;2023-01-08T09:48:36;8.60;99.90
61201;DHT22;47065;52.898;6.992;2023-01-08T09:51:02;8.70;99.90
61201;DHT22;47065;52.898;6.992;2023-01-08T09:53:28;8.70;99.90
61201;DHT22;47065;52.898;6.992;2023-01-08T09:56:03;8.80;99.90
61201;DHT22;47065;52.898;6.992;2023-01-08T09:58:36;8.90;99.90
61201;DHT22;47065;52.898;6.992;2023-01-08T10:01:03;9.00;99.90
61201;DHT22;47065;52.898;6.992;2023-01-08T10:03:40;9.00;99.90
61201;DHT22;47065;52.898;6.992;2023-01-08T10:06:08;9.10;99.90
61201;DHT22;47065;52.898;6.992;2023-01-08T10:08:35;9.10;99.90
61201;DHT22;47065;52.898;6.992;2023-01-08T10:11:01;9.20;99.90
61201;DHT22;47065;52.898;6.992;2023-01-08T10:13:27;9.20;99.90
61201;DHT22;47065;52.898;6.992;2023-01-08T10:15:53;9.20;99.90
61201;DHT22;47065;52.898;6.992;2023-01-08T10:18:22;9.20;99.90
61201;DHT22;47065;52.898;6.992;2023-01-08T10:20:49;9.30;99.90
61201;DHT22;47065;52.898;6.992;2023-01-08T10:23:18;9.30;99.90
61201;DHT22;47065;52.898;6.992;2023-01-08T10:25:58;9.30;99.90
61201;DHT22;47065;52.898;6.992;2023-01-08T10:28:27;9.40;99.90
61201;DHT22;47065;52.898;6.992;2023-01-08T10:31:07;9.40;99.90
61201;DHT22;47065;52.898;6.992;2023-01-08T10:33:44;9.50;99.90
61201;DHT22;47065;52.898;6.992;2023-01-08T10:36:18;9.50;99.90
61201;DHT22;47065;52.898;6.992;2023-01-08T10:39:00;9.60;99.90
61201;DHT22;47065;52.898;6.992;2023-01-08T10:41:27;9.60;99.90
61201;DHT22;47065;52.898;6.992;2023-01-08T10:43:57;9.70;99.90
61201;DHT22;47065;52.898;6.992;2023-01-08T10:46:39;9.70;99.90
61201;DHT22;47065;52.898;6.992;2023-01-08T10:49:34;9.80;99.90
61201;DHT22;47065;52.898;6.992;2023-01-08T10:51:59;9.80;99.90
61201;DHT22;47065;52.898;6.992;2023-01-08T10:54:39;9.80;99.90
61201;DHT22;47065;52.898;6.992;2023-01-08T10:57:23;9.90;99.90
61201;DHT22;47065;52.898;6.992;2023-01-08T10:59:49;10.00;99.90
61201;DHT22;47065;52.898;6.992;2023-01-08T11:02:27;10.00;99.90
61201;DHT22;47065;52.898;6.992;2023-01-08T11:04:54;10.10;99.90
61201;DHT22;47065;52.898;6.992;2023-01-08T11:07:21;10.10;99.90
61201;DHT22;47065;52.898;6.992;2023-01-08T11:09:49;10.10;99.90
61201;DHT22;47065;52.898;6.992;2023-01-08T11:12:37;10.10;99.90
61201;DHT22;47065;52.898;6.992;2023-01-08T11:15:06;10.10;99.90
61201;DHT22;47065;52.898;6.992;2023-01-08T11:17:48;10.20;99.90
61201;DHT22;47065;52.898;6.992;2023-01-08T11:20:21;10.20;99.90
61201;DHT22;47065;52.898;6.992;2023-01-08T11:22:47;10.20;99.90
61201;DHT22;47065;52.898;6.992;2023-01-08T11:25:16;10.20;99.90
61201;DHT22;47065;52.898;6.992;2023-01-08T11:27:45;10.20;99.90
61201;DHT22;47065;52.898;6.992;2023-01-08T11:30:16;10.20;99.90
61201;DHT22;47065;52.898;6.992;2023-01-08T11:35:36;10.10;99.90
61201;DHT22;47065;52.898;6.992;2023-01-08T11:38:05;10.10;99.90
61201;DHT22;47065;52.898;6.992;2023-01-08T11:40:58;10.00;99.90
61201;DHT22;47065;52.898;6.992;2023-01-08T11:52:18;10.10;99.90
61201;DHT22;47065;52.898;6.992;2023-01-08T11:55:04;10.20;99.90
61201;DHT22;47065;52.898;6.992;2023-01-08T12:02:53;10.00;99.90
61201;DHT22;47065;52.898;6.992;2023-01-08T12:05:26;9.90;99.90
61201;DHT22;47065;52.898;6.992;2023-01-08T12:27:28;9.50;99.90
61201;DHT22;47065;52.898;6.992;2023-01-08T12:32:50;9.50;99.90
61201;DHT22;47065;52.898;6.992;2023-01-08T12:35:26;9.50;99.90
61201;DHT22;47065;52.898;6.992;2023-01-08T12:38:12;9.50;99.90
61201;DHT22;47065;52.898;6.992;2023-01-08T12:40:44;9.50;99.90
61201;DHT22;47065;52.898;6.992;2023-01-08T12:46:14;9.60;99.90
61201;DHT22;47065;52.898;6.992;2023-01-08T12:48:43;9.60;99.90
61201;DHT22;47065;52.898;6.992;2023-01-08T12:54:06;9.60;99.90
61201;DHT22;47065;52.898;6.992;2023-01-08T13:00:07;9.60;99.90
61201;DHT22;47065;52.898;6.992;2023-01-08T13:02:56;9.50;99.90
61201;DHT22;47065;52.898;6.992;2023-01-08T13:07:53;9.50;99.90
61201;DHT22;47065;52.898;6.992;2023-01-08T13:10:36;9.50;99.90
61201;DHT22;47065;52.898;6.992;2023-01-08T13:13:07;9.50;99.90
61201;DHT22;47065;52.898;6.992;2023-01-08T13:15:47;9.50;99.90
61201;DHT22;47065;52.898;6.992;2023-01-08T13:18:20;9.50;99.90
61201;DHT22;47065;52.898;6.992;2023-01-08T13:20:57;9.50;99.90
61201;DHT22;47065;52.898;6.992;2023-01-08T13:23:28;9.50;99.90
61201;DHT22;47065;52.898;6.992;2023-01-08T13:25:58;9.60;99.90
61201;DHT22;47065;52.898;6.992;2023-01-08T13:30:49;9.60;99.90
61201;DHT22;47065;52.898;6.992;2023-01-08T13:36:26;9.70;99.90
61201;DHT22;47065;52.898;6.992;2023-01-08T13:44:38;9.80;99.90
61201;DHT22;47065;52.898;6.992;2023-01-08T13:49:52;9.80;99.90
61201;DHT22;47065;52.898;6.992;2023-01-08T13:52:40;9.80;99.90
61201;DHT22;47065;52.898;6.992;2023-01-08T13:55:33;9.80;99.90
61201;DHT22;47065;52.898;6.992;2023-01-08T13:58:03;9.80;99.90
61201;DHT22;47065;52.898;6.992;2023-01-08T14:00:42;9.80;99.90
61201;DHT22;47065;52.898;6.992;2023-01-08T14:03:32;9.80;99.90
61201;DHT22;47065;52.898;6.992;2023-01-08T14:06:22;9.80;99.90
61201;DHT22;47065;52.898;6.992;2023-01-08T14:08:58;9.80;99.90
61201;DHT22;47065;52.898;6.992;2023-01-08T14:11:30;9.70;99.90
61201;DHT22;47065;52.898;6.992;2023-01-08T14:13:59;9.70;99.90
61201;DHT22;47065;52.898;6.992;2023-01-08T14:16:25;9.70;99.90
61201;DHT22;47065;52.898;6.992;2023-01-08T14:18:52;9.70;99.90
61201;DHT22;47065;52.898;6.992;2023-01-08T14:21:21;9.70;99.90
61201;DHT22;47065;52.898;6.992;2023-01-08T14:23:48;9.60;99.90
61201;DHT22;47065;52.898;6.992;2023-01-08T14:26:35;9.60;99.90
61201;DHT22;47065;52.898;6.992;2023-01-08T14:29:13;9.50;99.90
61201;DHT22;47065;52.898;6.992;2023-01-08T14:31:45;9.50;99.90
61201;DHT22;47065;52.898;6.992;2023-01-08T14:34:12;9.50;99.90
61201;DHT22;47065;52.898;6.992;2023-01-08T14:36:40;9.40;99.90
61201;DHT22;47065;52.898;6.992;2023-01-08T14:39:11;9.40;99.90
61201;DHT22;47065;52.898;6.992;2023-01-08T14:41:39;9.40;99.90
61201;DHT22;47065;52.898;6.992;2023-01-08T14:44:24;9.30;99.90
61201;DHT22;47065;52.898;6.992;2023-01-08T14:46:51;9.30;99.90
61201;DHT22;47065;52.898;6.992;2023-01-08T14:51:45;9.20;99.90
61201;DHT22;47065;52.898;6.992;2023-01-08T14:54:18;9.10;99.90
61201;DHT22;47065;52.898;6.992;2023-01-08T14:56:49;9.10;99.90
61201;DHT22;47065;52.898;6.992;2023-01-08T14:59:18;9.10;99.90
61201;DHT22;47065;52.898;6.992;2023-01-08T15:01:54;9.10;99.90
61201;DHT22;47065;52.898;6.992;2023-01-08T15:04:21;9.10;99.90
61201;DHT22;47065;52.898;6.992;2023-01-08T15:06:48;9.10;99.90
61201;DHT22;47065;52.898;6.992;2023-01-08T15:09:35;9.10;99.90
61201;DHT22;47065;52.898;6.992;2023-01-08T15:12:03;9.10;99.90
61201;DHT22;47065;52.898;6.992;2023-01-08T15:14:30;9.10;99.90
61201;DHT22;47065;52.898;6.992;2023-01-08T15:17:02;9.00;99.90
61201;DHT22;47065;52.898;6.992;2023-01-08T15:19:29;9.00;99.90
61201;DHT22;47065;52.898;6.992;2023-01-08T15:21:59;9.00;99.90
61201;DHT22;47065;52.898;6.992;2023-01-08T15:24:29;9.00;99.90
61201;DHT22;47065;52.898;6.992;2023-01-08T15:26:55;8.90;99.90
61201;DHT22;47065;52.898;6.992;2023-01-08T15:29:28;8.90;99.90
61201;DHT22;47065;52.898;6.992;2023-01-08T15:32:20;8.90;99.90
61201;DHT22;47065;52.898;6.992;2023-01-08T15:34:47;8.80;99.90
61201;DHT22;47065;52.898;6.992;2023-01-08T15:37:13;8.80;99.90
61201;DHT22;47065;52.898;6.992;2023-01-08T15:39:40;8.70;99.90
61201;DHT22;47065;52.898;6.992;2023-01-08T15:42:29;8.70;99.90
61201;DHT22;47065;52.898;6.992;2023-01-08T15:45:27;8.60;99.90
61201;DHT22;47065;52.898;6.992;2023-01-08T15:47:54;8.60;99.90
61201;DHT22;47065;52.898;6.992;2023-01-08T15:50:19;8.50;99.90
61201;DHT22;47065;52.898;6.992;2023-01-08T15:52:45;8.50;99.90
61201;DHT22;47065;52.898;6.992;2023-01-08T15:55:20;8.40;99.90
61201;DHT22;47065;52.898;6.992;2023-01-08T15:57:46;8.40;99.90
61201;DHT22;47065;52.898;6.992;2023-01-08T16:00:16;8.30;99.90
61201;DHT22;47065;52.898;6.992;2023-01-08T16:02:48;8.30;99.90
61201;DHT22;47065;52.898;6.992;2023-01-08T16:05:15;8.20;99.90
61201;DHT22;47065;52.898;6.992;2023-01-08T16:07:42;8.20;99.90
61201;DHT22;47065;52.898;6.992;2023-01-08T16:10:11;8.20;99.90
61201;DHT22;47065;52.898;6.992;2023-01-08T16:12:36;8.20;99.90
61201;DHT22;47065;52.898;6.992;2023-01-08T16:15:02;8.10;99.90
61201;DHT22;47065;52.898;6.992;2023-01-08T16:17:28;8.10;99.90
61201;DHT22;47065;52.898;6.992;2023-01-08T16:19:54;8.10;99.90
61201;DHT22;47065;52.898;6.992;2023-01-08T16:22:20;8.00;99.90
61201;DHT22;47065;52.898;6.992;2023-01-08T16:24:46;8.00;99.90
61201;DHT22;47065;52.898;6.992;2023-01-08T16:27:11;7.90;99.90
61201;DHT22;47065;52.898;6.992;2023-01-08T16:29:37;7.90;99.90
61201;DHT22;47065;52.898;6.992;2023-01-08T16:32:03;7.90;99.90
61201;DHT22;47065;52.898;6.992;2023-01-08T16:34:28;7.80;99.90
61201;DHT22;47065;52.898;6.992;2023-01-08T16:36:54;7.80;99.90
61201;DHT22;47065;52.898;6.992;2023-01-08T16:39:19;7.80;99.90
61201;DHT22;47065;52.898;6.992;2023-01-08T16:41:46;7.80;99.90
61201;DHT22;47065;52.898;6.992;2023-01-08T16:44:21;7.70;99.90
61201;DHT22;47065;52.898;6.992;2023-01-08T16:46:46;7.70;99.90
61201;DHT22;47065;52.898;6.992;2023-01-08T16:49:12;7.70;99.90
61201;DHT22;47065;52.898;6.992;2023-01-08T16:51:38;7.60;99.90
61201;DHT22;47065;52.898;6.992;2023-01-08T16:54:04;7.60;99.90
61201;DHT22;47065;52.898;6.992;2023-01-08T16:56:29;7.60;99.90
61201;DHT22;47065;52.898;6.992;2023-01-08T16:58:55;7.60;99.90
61201;DHT22;47065;52.898;6.992;2023-01-08T17:01:21;7.50;99.90
61201;DHT22;47065;52.898;6.992;2023-01-08T17:03:46;7.50;99.90
61201;DHT22;47065;52.898;6.992;2023-01-08T17:06:13;7.50;99.90
61201;DHT22;47065;52.898;6.992;2023-01-08T17:08:40;7.50;99.90
61201;DHT22;47065;52.898;6.992;2023-01-08T17:11:12;7.40;99.90
61201;DHT22;47065;52.898;6.992;2023-01-08T17:13:38;7.40;99.90
61201;DHT22;47065;52.898;6.992;2023-01-08T17:16:06;7.40;99.90
61201;DHT22;47065;52.898;6.992;2023-01-08T17:18:32;7.30;99.90
61201;DHT22;47065;52.898;6.992;2023-01-08T17:20:58;7.30;99.90
61201;DHT22;47065;52.898;6.992;2023-01-08T17:23:24;7.30;99.90
61201;DHT22;47065;52.898;6.992;2023-01-08T17:25:53;7.30;99.90
61201;DHT22;47065;52.898;6.992;2023-01-08T17:28:19;7.20;99.90
61201;DHT22;47065;52.898;6.992;2023-01-08T17:30:45;7.20;99.90
61201;DHT22;47065;52.898;6.992;2023-01-08T17:33:10;7.10;99.90
61201;DHT22;47065;52.898;6.992;2023-01-08T17:35:36;7.10;99.90
61201;DHT22;47065;52.898;6.992;2023-01-08T17:38:01;7.00;99.90
61201;DHT22;47065;52.898;6.992;2023-01-08T17:40:27;6.90;99.90
61201;DHT22;47065;52.898;6.992;2023-01-08T17:42:54;6.90;99.90
61201;DHT22;47065;52.898;6.992;2023-01-08T17:45:20;6.90;99.90
61201;DHT22;47065;52.898;6.992;2023-01-08T17:47:45;6.80;99.90
61201;DHT22;47065;52.898;6.992;2023-01-08T17:50:11;6.80;99.90
61201;DHT22;47065;52.898;6.992;2023-01-08T17:52:36;6.70;99.90
61201;DHT22;47065;52.898;6.992;2023-01-08T17:55:02;6.70;99.90
61201;DHT22;47065;52.898;6.992;2023-01-08T17:57:28;6.70;99.90
61201;DHT22;47065;52.898;6.992;2023-01-08T17:59:56;6.70;99.90
61201;DHT22;47065;52.898;6.992;2023-01-08T18:02:22;6.60;99.90
61201;DHT22;47065;52.898;6.992;2023-01-08T18:04:47;6.60;99.90
61201;DHT22;47065;52.898;6.992;2023-01-08T18:07:13;6.60;99.90
61201;DHT22;47065;52.898;6.992;2023-01-08T18:09:39;6.60;99.90
61201;DHT22;47065;52.898;6.992;2023-01-08T18:12:06;6.60;99.90
61201;DHT22;47065;52.898;6.992;2023-01-08T18:14:32;6.50;99.90
61201;DHT22;47065;52.898;6.992;2023-01-08T18:16:59;6.50;99.90
61201;DHT22;47065;52.898;6.992;2023-01-08T18:19:24;6.50;99.90
61201;DHT22;47065;52.898;6.992;2023-01-08T18:21:50;6.50;99.90
61201;DHT22;47065;52.898;6.992;2023-01-08T18:24:16;6.50;99.90
61201;DHT22;47065;52.898;6.992;2023-01-08T18:26:42;6.40;99.90
61201;DHT22;47065;52.898;6.992;2023-01-08T18:29:08;6.40;99.90
61201;DHT22;47065;52.898;6.992;2023-01-08T18:31:34;6.40;99.90
61201;DHT22;47065;52.898;6.992;2023-01-08T18:33:59;6.40;99.90
61201;DHT22;47065;52.898;6.992;2023-01-08T18:36:25;6.30;99.90
61201;DHT22;47065;52.898;6.992;2023-01-08T18:38:51;6.40;99.90
61201;DHT22;47065;52.898;6.992;2023-01-08T18:41:18;6.30;99.90
61201;DHT22;47065;52.898;6.992;2023-01-08T18:44:05;6.30;99.90
61201;DHT22;47065;52.898;6.992;2023-01-08T18:46:31;6.30;99.90
61201;DHT22;47065;52.898;6.992;2023-01-08T18:48:57;6.30;99.90
61201;DHT22;47065;52.898;6.992;2023-01-08T18:51:23;6.20;99.90
61201;DHT22;47065;52.898;6.992;2023-01-08T18:53:52;6.20;99.90
61201;DHT22;47065;52.898;6.992;2023-01-08T18:56:26;6.20;99.90
61201;DHT22;47065;52.898;6.992;2023-01-08T18:58:52;6.20;99.90
61201;DHT22;47065;52.898;6.992;2023-01-08T19:01:17;6.20;99.90
61201;DHT22;47065;52.898;6.992;2023-01-08T19:03:43;6.20;99.90
61201;DHT22;47065;52.898;6.992;2023-01-08T19:06:13;6.10;99.90
61201;DHT22;47065;52.898;6.992;2023-01-08T19:08:40;6.10;99.90
61201;DHT22;47065;52.898;6.992;2023-01-08T19:11:07;6.10;99.90
61201;DHT22;47065;52.898;6.992;2023-01-08T19:13:33;6.10;99.90
61201;DHT22;47065;52.898;6.992;2023-01-08T19:16:01;6.10;99.90
61201;DHT22;47065;52.898;6.992;2023-01-08T19:18:27;6.00;99.90
61201;DHT22;47065;52.898;6.992;2023-01-08T19:20:52;6.00;99.90
61201;DHT22;47065;52.898;6.992;2023-01-08T19:23:18;6.00;99.90
61201;DHT22;47065;52.898;6.992;2023-01-08T19:25:44;6.00;99.90
61201;DHT22;47065;52.898;6.992;2023-01-08T19:28:10;5.90;99.90
61201;DHT22;47065;52.898;6.992;2023-01-08T19:30:35;5.90;99.90
61201;DHT22;47065;52.898;6.992;2023-01-08T19:33:02;5.90;99.90
61201;DHT22;47065;52.898;6.992;2023-01-08T19:35:28;5.80;99.90
61201;DHT22;47065;52.898;6.992;2023-01-08T19:37:53;5.80;99.90
61201;DHT22;47065;52.898;6.992;2023-01-08T19:40:19;5.90;99.90